sensor_id;sensor_type;location;lat;lon;timestamp;pressure;altitude;pressure_sealevel;temperature;humidity
61906;BME280;47863;55.766;37.672;2023-03-11T00:00:40;99398.59;;;-4.37;64.15
61906;BME280;47863;55.766;37.672;2023-03-11T00:03:07;99402.03;;;-4.36;64.32
61906;BME280;47863;55.766;37.672;2023-03-11T00:05:36;99414.13;;;-4.34;64.45
61906;BME280;47863;55.766;37.672;2023-03-11T00:08:03;99413.38;;;-4.36;64.80
61906;BME280;47863;55.766;37.672;2023-03-11T00:10:37;99411.59;;;-4.35;65.01
61906;BME280;47863;55.766;37.672;2023-03-11T00:13:05;99405.41;;;-4.34;65.22
61906;BME280;47863;55.766;37.672;2023-03-11T00:15:31;99363.91;;;-4.58;65.16
61906;BME280;47863;55.766;37.672;2023-03-11T00:17:57;99396.66;;;-4.33;65.33
61906;BME280;47863;55.766;37.672;2023-03-11T00:20:26;99404.50;;;-4.33;64.86
61906;BME280;47863;55.766;37.672;2023-03-11T00:22:52;99368.75;;;-4.50;65.17
61906;BME280;47863;55.766;37.672;2023-03-11T00:25:19;99393.81;;;-4.29;64.84
61906;BME280;47863;55.766;37.672;2023-03-11T00:27:45;99390.44;;;-4.31;65.12
61906;BME280;47863;55.766;37.672;2023-03-11T00:30:13;99396.44;;;-4.29;65.53
61906;BME280;47863;55.766;37.672;2023-03-11T00:32:39;99404.28;;;-4.29;65.64
61906;BME280;47863;55.766;37.672;2023-03-11T00:35:05;99396.44;;;-4.29;65.40
61906;BME280;47863;55.766;37.672;2023-03-11T00:37:30;99405.22;;;-4.30;65.69
61906;BME280;47863;55.766;37.672;2023-03-11T00:39:56;99401.75;;;-4.30;65.45
61906;BME280;47863;55.766;37.672;2023-03-11T00:42:21;99409.59;;;-4.30;65.69
61906;BME280;47863;55.766;37.672;2023-03-11T00:44:47;99370.91;;;-4.41;65.90
61906;BME280;47863;55.766;37.672;2023-03-11T00:47:13;99386.28;;;-4.35;65.52
61906;BME280;47863;55.766;37.672;2023-03-11T00:49:38;99396.59;;;-4.32;65.87
61906;BME280;47863;55.766;37.672;2023-03-11T00:52:04;99399.22;;;-4.32;65.70
61906;BME280;47863;55.766;37.672;2023-03-11T00:54:30;99403.69;;;-4.34;66.15
61906;BME280;47863;55.766;37.672;2023-03-11T00:56:55;99403.59;;;-4.32;65.98
61906;BME280;47863;55.766;37.672;2023-03-11T00:59:21;99378.91;;;-4.44;65.97
61906;BME280;47863;55.766;37.672;2023-03-11T01:01:47;99394.28;;;-4.38;65.79
61906;BME280;47863;55.766;37.672;2023-03-11T01:04:12;99408.91;;;-4.34;65.61
61906;BME280;47863;55.766;37.672;2023-03-11T01:06:38;99391.81;;;-4.41;65.55
61906;BME280;47863;55.766;37.672;2023-03-11T01:09:03;99409.81;;;-4.35;65.63
61906;BME280;47863;55.766;37.672;2023-03-11T01:11:30;99383.00;;;-4.56;65.78
61906;BME280;47863;55.766;37.672;2023-03-11T01:13:56;99375.34;;;-4.61;66.07
61906;BME280;47863;55.766;37.672;2023-03-11T01:16:22;99401.44;;;-4.42;66.03
61906;BME280;47863;55.766;37.672;2023-03-11T01:18:47;99414.50;;;-4.42;65.78
61906;BME280;47863;55.766;37.672;2023-03-11T01:21:13;99411.06;;;-4.42;65.80
61906;BME280;47863;55.766;37.672;2023-03-11T01:23:40;99393.19;;;-4.51;66.37
61906;BME280;47863;55.766;37.672;2023-03-11T01:26:05;99405.13;;;-4.46;65.93
61906;BME280;47863;55.766;37.672;2023-03-11T01:28:31;99410.34;;;-4.46;65.93
61906;BME280;47863;55.766;37.672;2023-03-11T01:30:57;99379.09;;;-4.66;66.30
61906;BME280;47863;55.766;37.672;2023-03-11T01:33:22;99392.88;;;-4.63;65.93
61906;BME280;47863;55.766;37.672;2023-03-11T01:35:48;99387.50;;;-4.60;66.12
61906;BME280;47863;55.766;37.672;2023-03-11T01:38:14;99392.75;;;-4.60;66.09
61906;BME280;47863;55.766;37.672;2023-03-11T01:40:43;99402.13;;;-4.55;66.33
61906;BME280;47863;55.766;37.672;2023-03-11T01:46:17;99395.03;;;-4.71;66.34
61906;BME280;47863;55.766;37.672;2023-03-11T01:49:02;99406.63;;;-4.76;65.66
61906;BME280;47863;55.766;37.672;2023-03-11T01:51:37;99399.78;;;-4.79;65.86
61906;BME280;47863;55.766;37.672;2023-03-11T01:54:11;99399.13;;;-4.84;65.56
61906;BME280;47863;55.766;37.672;2023-03-11T01:56:38;99392.59;;;-4.93;65.87
61906;BME280;47863;55.766;37.672;2023-03-11T01:59:07;99385.34;;;-5.05;66.08
61906;BME280;47863;55.766;37.672;2023-03-11T02:01:33;99369.03;;;-5.10;66.09
61906;BME280;47863;55.766;37.672;2023-03-11T02:04:02;99401.97;;;-4.89;65.95
61906;BME280;47863;55.766;37.672;2023-03-11T02:06:30;99392.53;;;-4.91;65.78
61906;BME280;47863;55.766;37.672;2023-03-11T02:08:56;99395.91;;;-4.89;65.82
61906;BME280;47863;55.766;37.672;2023-03-11T02:11:26;99396.06;;;-4.92;66.33
61906;BME280;47863;55.766;37.672;2023-03-11T02:13:56;99391.66;;;-4.92;66.22
61906;BME280;47863;55.766;37.672;2023-03-11T02:16:23;99346.13;;;-5.23;65.64
61906;BME280;47863;55.766;37.672;2023-03-11T02:18:48;99399.66;;;-4.95;65.87
61906;BME280;47863;55.766;37.672;2023-03-11T02:21:28;99316.94;;;-5.50;65.67
61906;BME280;47863;55.766;37.672;2023-03-11T02:24:19;99376.94;;;-5.12;65.94
61906;BME280;47863;55.766;37.672;2023-03-11T02:26:54;99334.28;;;-5.30;66.01
61906;BME280;47863;55.766;37.672;2023-03-11T02:29:20;99393.75;;;-4.99;66.32
61906;BME280;47863;55.766;37.672;2023-03-11T02:31:47;99388.28;;;-4.94;65.93
61906;BME280;47863;55.766;37.672;2023-03-11T02:34:28;99375.19;;;-5.11;66.16
61906;BME280;47863;55.766;37.672;2023-03-11T02:36:54;99396.13;;;-4.94;65.94
61906;BME280;47863;55.766;37.672;2023-03-11T02:39:32;99386.75;;;-4.98;65.62
61906;BME280;47863;55.766;37.672;2023-03-11T02:42:02;99348.09;;;-5.28;66.06
61906;BME280;47863;55.766;37.672;2023-03-11T02:44:28;99391.13;;;-4.99;65.61
61906;BME280;47863;55.766;37.672;2023-03-11T02:46:54;99398.97;;;-4.99;66.15
61906;BME280;47863;55.766;37.672;2023-03-11T02:49:21;99398.91;;;-4.97;65.80
61906;BME280;47863;55.766;37.672;2023-03-11T02:51:47;99399.72;;;-4.96;65.34
61906;BME280;47863;55.766;37.672;2023-03-11T02:54:12;99402.41;;;-4.98;65.69
61906;BME280;47863;55.766;37.672;2023-03-11T02:56:38;99379.63;;;-5.13;65.39
61906;BME280;47863;55.766;37.672;2023-03-11T02:59:03;99399.03;;;-5.00;65.88
61906;BME280;47863;55.766;37.672;2023-03-11T03:01:30;99395.72;;;-5.04;65.77
61906;BME280;47863;55.766;37.672;2023-03-11T03:03:55;99401.94;;;-5.06;65.83
61906;BME280;47863;55.766;37.672;2023-03-11T03:06:21;99377.94;;;-5.14;65.81
61906;BME280;47863;55.766;37.672;2023-03-11T03:08:46;99394.81;;;-5.03;65.65
61906;BME280;47863;55.766;37.672;2023-03-11T03:11:12;99390.59;;;-5.05;65.72
61906;BME280;47863;55.766;37.672;2023-03-11T03:13:38;99387.03;;;-5.04;66.07
61906;BME280;47863;55.766;37.672;2023-03-11T03:16:04;99392.19;;;-5.03;66.27
61906;BME280;47863;55.766;37.672;2023-03-11T03:18:30;99372.06;;;-5.20;66.38
61906;BME280;47863;55.766;37.672;2023-03-11T03:20:55;99400.16;;;-5.06;66.68
61906;BME280;47863;55.766;37.672;2023-03-11T03:23:21;99405.25;;;-5.03;66.51
61906;BME280;47863;55.766;37.672;2023-03-11T03:25:46;99395.63;;;-5.02;66.46
61906;BME280;47863;55.766;37.672;2023-03-11T03:28:12;99401.69;;;-5.02;66.73
61906;BME280;47863;55.766;37.672;2023-03-11T03:30:38;99384.59;;;-5.07;66.75
61906;BME280;47863;55.766;37.672;2023-03-11T03:33:05;99400.03;;;-5.03;66.45
61906;BME280;47863;55.766;37.672;2023-03-11T03:35:31;99397.66;;;-5.07;66.86
61906;BME280;47863;55.766;37.672;2023-03-11T03:37:57;99407.94;;;-5.04;67.10
61906;BME280;47863;55.766;37.672;2023-03-11T03:40:23;99401.88;;;-5.05;67.15
61906;BME280;47863;55.766;37.672;2023-03-11T03:42:48;99362.56;;;-5.21;67.19
61906;BME280;47863;55.766;37.672;2023-03-11T03:45:14;99399.03;;;-5.00;66.82
61906;BME280;47863;55.766;37.672;2023-03-11T03:47:39;99394.56;;;-4.98;66.72
61906;BME280;47863;55.766;37.672;2023-03-11T03:50:07;99388.38;;;-4.95;67.67
61906;BME280;47863;55.766;37.672;2023-03-11T03:52:34;99397.91;;;-4.94;68.94
61906;BME280;47863;55.766;37.672;2023-03-11T03:55:00;99393.03;;;-5.02;69.09
61906;BME280;47863;55.766;37.672;2023-03-11T03:57:27;99349.31;;;-5.35;68.64
61906;BME280;47863;55.766;37.672;2023-03-11T03:59:53;99384.94;;;-5.15;69.33
61906;BME280;47863;55.766;37.672;2023-03-11T04:02:18;99371.53;;;-5.26;70.90
61906;BME280;47863;55.766;37.672;2023-03-11T04:04:44;99381.44;;;-5.33;70.71
61906;BME280;47863;55.766;37.672;2023-03-11T04:07:09;99368.78;;;-5.42;70.37
61906;BME280;47863;55.766;37.672;2023-03-11T04:09:40;99385.78;;;-5.33;71.87
61906;BME280;47863;55.766;37.672;2023-03-11T04:12:07;99385.00;;;-5.35;71.82
61906;BME280;47863;55.766;37.672;2023-03-11T04:14:36;99374.91;;;-5.43;71.90
61906;BME280;47863;55.766;37.672;2023-03-11T04:17:02;99314.13;;;-5.83;72.16
61906;BME280;47863;55.766;37.672;2023-03-11T04:19:27;99374.13;;;-5.45;71.05
61906;BME280;47863;55.766;37.672;2023-03-11T04:21:53;99370.34;;;-5.38;71.30
61906;BME280;47863;55.766;37.672;2023-03-11T04:24:18;99320.25;;;-5.65;71.41
61906;BME280;47863;55.766;37.672;2023-03-11T04:26:44;99359.75;;;-5.35;71.12
61906;BME280;47863;55.766;37.672;2023-03-11T04:29:10;99357.63;;;-5.27;71.56
61906;BME280;47863;55.766;37.672;2023-03-11T04:31:35;99338.09;;;-5.37;71.81
61906;BME280;47863;55.766;37.672;2023-03-11T04:34:01;99335.56;;;-5.39;71.99
61906;BME280;47863;55.766;37.672;2023-03-11T04:36:26;99333.16;;;-5.43;72.72
61906;BME280;47863;55.766;37.672;2023-03-11T04:38:52;99349.38;;;-5.36;72.44
61906;BME280;47863;55.766;37.672;2023-03-11T04:41:19;99349.31;;;-5.35;72.77
61906;BME280;47863;55.766;37.672;2023-03-11T04:43:44;99336.19;;;-5.33;73.35
61906;BME280;47863;55.766;37.672;2023-03-11T04:46:10;99328.03;;;-5.45;73.49
61906;BME280;47863;55.766;37.672;2023-03-11T04:48:35;99347.13;;;-5.25;74.41
61906;BME280;47863;55.766;37.672;2023-03-11T04:51:01;99339.66;;;-5.33;73.79
61906;BME280;47863;55.766;37.672;2023-03-11T04:53:27;99345.84;;;-5.35;74.50
61906;BME280;47863;55.766;37.672;2023-03-11T04:55:53;99344.94;;;-5.34;74.27
61906;BME280;47863;55.766;37.672;2023-03-11T04:58:19;99323.56;;;-5.43;74.66
61906;BME280;47863;55.766;37.672;2023-03-11T05:00:44;99301.69;;;-5.59;74.88
61906;BME280;47863;55.766;37.672;2023-03-11T05:03:10;99349.38;;;-5.36;74.55
61906;BME280;47863;55.766;37.672;2023-03-11T05:05:36;99339.44;;;-5.28;74.10
61906;BME280;47863;55.766;37.672;2023-03-11T05:08:02;99338.84;;;-5.16;73.83
61906;BME280;47863;55.766;37.672;2023-03-11T05:10:28;99340.19;;;-5.07;73.41
61906;BME280;47863;55.766;37.672;2023-03-11T05:12:53;99344.03;;;-4.97;73.68
61906;BME280;47863;55.766;37.672;2023-03-11T05:15:19;99343.88;;;-4.94;74.39
61906;BME280;47863;55.766;37.672;2023-03-11T05:17:45;99331.69;;;-4.93;73.81
61906;BME280;47863;55.766;37.672;2023-03-11T05:20:11;99299.31;;;-5.08;73.03
61906;BME280;47863;55.766;37.672;2023-03-11T05:22:37;99289.38;;;-5.02;73.38
61906;BME280;47863;55.766;37.672;2023-03-11T05:25:04;99294.09;;;-4.91;73.26
61906;BME280;47863;55.766;37.672;2023-03-11T05:27:30;99311.78;;;-4.79;72.83
61906;BME280;47863;55.766;37.672;2023-03-11T05:29:55;99284.56;;;-4.92;72.64
61906;BME280;47863;55.766;37.672;2023-03-11T05:32:21;99329.31;;;-4.63;73.17
61906;BME280;47863;55.766;37.672;2023-03-11T05:34:47;99324.16;;;-4.65;73.87
61906;BME280;47863;55.766;37.672;2023-03-11T05:37:12;99278.66;;;-4.95;73.46
61906;BME280;47863;55.766;37.672;2023-03-11T05:39:38;99319.31;;;-4.72;73.39
61906;BME280;47863;55.766;37.672;2023-03-11T05:42:04;99326.94;;;-4.68;73.42
61906;BME280;47863;55.766;37.672;2023-03-11T05:44:31;99327.09;;;-4.53;74.07
61906;BME280;47863;55.766;37.672;2023-03-11T05:46:57;99333.22;;;-4.54;73.72
61906;BME280;47863;55.766;37.672;2023-03-11T05:49:22;99330.00;;;-4.60;74.07
61906;BME280;47863;55.766;37.672;2023-03-11T05:51:48;99309.09;;;-4.60;73.71
61906;BME280;47863;55.766;37.672;2023-03-11T05:54:15;99327.53;;;-4.45;73.50
61906;BME280;47863;55.766;37.672;2023-03-11T05:56:42;99329.38;;;-4.47;73.95
61906;BME280;47863;55.766;37.672;2023-03-11T05:59:08;99331.22;;;-4.49;74.00
61906;BME280;47863;55.766;37.672;2023-03-11T06:01:34;99303.19;;;-4.63;74.28
61906;BME280;47863;55.766;37.672;2023-03-11T06:04:00;99304.84;;;-4.62;74.40
61906;BME280;47863;55.766;37.672;2023-03-11T06:06:26;99327.53;;;-4.45;74.59
61906;BME280;47863;55.766;37.672;2023-03-11T06:08:53;99314.22;;;-4.41;73.73
61906;BME280;47863;55.766;37.672;2023-03-11T06:11:19;99312.31;;;-4.37;74.48
61906;BME280;47863;55.766;37.672;2023-03-11T06:13:45;99322.63;;;-4.34;74.24
61906;BME280;47863;55.766;37.672;2023-03-11T06:16:11;99325.00;;;-4.29;74.39
61906;BME280;47863;55.766;37.672;2023-03-11T06:18:36;99280.94;;;-4.54;73.98
61906;BME280;47863;55.766;37.672;2023-03-11T06:21:02;99318.84;;;-4.28;74.51
61906;BME280;47863;55.766;37.672;2023-03-11T06:23:29;99326.75;;;-4.30;74.47
61906;BME280;47863;55.766;37.672;2023-03-11T06:26:03;99325.16;;;-4.32;74.71
61906;BME280;47863;55.766;37.672;2023-03-11T06:28:30;99325.75;;;-4.27;74.66
61906;BME280;47863;55.766;37.672;2023-03-11T06:31:06;99321.22;;;-4.24;74.63
61906;BME280;47863;55.766;37.672;2023-03-11T06:33:31;99280.16;;;-4.39;74.40
61906;BME280;47863;55.766;37.672;2023-03-11T06:36:00;99313.28;;;-4.22;74.52
61906;BME280;47863;55.766;37.672;2023-03-11T06:38:26;99314.13;;;-4.22;74.92
61906;BME280;47863;55.766;37.672;2023-03-11T06:40:52;99317.22;;;-4.31;74.72
61906;BME280;47863;55.766;37.672;2023-03-11T06:43:18;99296.63;;;-4.37;75.57
61906;BME280;47863;55.766;37.672;2023-03-11T06:45:44;99311.16;;;-4.31;75.81
61906;BME280;47863;55.766;37.672;2023-03-11T06:48:09;99313.25;;;-4.38;76.03
61906;BME280;47863;55.766;37.672;2023-03-11T06:50:35;99295.66;;;-4.52;76.63
61906;BME280;47863;55.766;37.672;2023-03-11T06:53:01;99306.38;;;-4.41;76.48
61906;BME280;47863;55.766;37.672;2023-03-11T06:55:27;99312.22;;;-4.35;77.17
61906;BME280;47863;55.766;37.672;2023-03-11T06:57:53;99298.16;;;-4.50;76.55
61906;BME280;47863;55.766;37.672;2023-03-11T07:00:18;99306.06;;;-4.34;76.73
61906;BME280;47863;55.766;37.672;2023-03-11T07:02:44;99305.06;;;-4.32;76.13
61906;BME280;47863;55.766;37.672;2023-03-11T07:05:09;99310.69;;;-4.40;76.79
61906;BME280;47863;55.766;37.672;2023-03-11T07:07:36;99290.94;;;-4.45;76.29
61906;BME280;47863;55.766;37.672;2023-03-11T07:10:02;99308.69;;;-4.34;76.74
61906;BME280;47863;55.766;37.672;2023-03-11T07:12:29;99303.38;;;-4.33;77.18
61906;BME280;47863;55.766;37.672;2023-03-11T07:14:58;99273.09;;;-4.37;76.79
61906;BME280;47863;55.766;37.672;2023-03-11T07:17:24;99288.88;;;-4.23;76.85
61906;BME280;47863;55.766;37.672;2023-03-11T07:19:50;99258.41;;;-4.40;75.76
61906;BME280;47863;55.766;37.672;2023-03-11T07:22:16;99284.22;;;-4.33;76.78
61906;BME280;47863;55.766;37.672;2023-03-11T07:24:46;99231.91;;;-4.67;77.21
61906;BME280;47863;55.766;37.672;2023-03-11T07:27:12;99272.56;;;-4.44;77.50
61906;BME280;47863;55.766;37.672;2023-03-11T07:29:38;99285.25;;;-4.36;77.79
61906;BME280;47863;55.766;37.672;2023-03-11T07:32:06;99277.22;;;-4.33;78.06
61906;BME280;47863;55.766;37.672;2023-03-11T07:34:31;99262.31;;;-4.31;78.06
61906;BME280;47863;55.766;37.672;2023-03-11T07:36:57;99273.75;;;-4.16;77.36
61906;BME280;47863;55.766;37.672;2023-03-11T07:39:22;99272.91;;;-4.16;77.16
61906;BME280;47863;55.766;37.672;2023-03-11T07:41:48;99262.34;;;-4.15;76.66
61906;BME280;47863;55.766;37.672;2023-03-11T07:44:14;99256.44;;;-4.19;76.94
61906;BME280;47863;55.766;37.672;2023-03-11T07:46:40;99251.97;;;-4.16;77.56
61906;BME280;47863;55.766;37.672;2023-03-11T07:49:06;99246.00;;;-4.19;76.84
61906;BME280;47863;55.766;37.672;2023-03-11T07:51:33;99217.66;;;-4.10;76.85
61906;BME280;47863;55.766;37.672;2023-03-11T07:54:00;99220.75;;;-4.04;76.64
61906;BME280;47863;55.766;37.672;2023-03-11T07:56:28;99205.56;;;-3.97;76.71
61906;BME280;47863;55.766;37.672;2023-03-11T07:58:56;99221.94;;;-3.78;76.65
61906;BME280;47863;55.766;37.672;2023-03-11T08:01:24;99229.81;;;-3.78;76.55
61906;BME280;47863;55.766;37.672;2023-03-11T08:03:52;99212.09;;;-3.72;76.37
61906;BME280;47863;55.766;37.672;2023-03-11T08:06:30;99211.31;;;-3.74;77.68
61906;BME280;47863;55.766;37.672;2023-03-11T08:08:57;99198.59;;;-3.81;78.45
61906;BME280;47863;55.766;37.672;2023-03-11T08:11:23;99188.13;;;-3.81;78.20
61906;BME280;47863;55.766;37.672;2023-03-11T08:13:49;99208.19;;;-3.81;77.78
61906;BME280;47863;55.766;37.672;2023-03-11T08:16:17;99182.13;;;-3.83;78.02
61906;BME280;47863;55.766;37.672;2023-03-11T08:18:43;99202.03;;;-3.64;77.60
61906;BME280;47863;55.766;37.672;2023-03-11T08:21:19;99181.16;;;-3.66;77.09
61906;BME280;47863;55.766;37.672;2023-03-11T08:23:45;99171.53;;;-3.81;77.22
61906;BME280;47863;55.766;37.672;2023-03-11T08:26:12;99175.25;;;-3.85;77.61
61906;BME280;47863;55.766;37.672;2023-03-11T08:28:38;99176.56;;;-3.92;78.33
61906;BME280;47863;55.766;37.672;2023-03-11T08:31:15;99174.69;;;-3.90;78.17
61906;BME280;47863;55.766;37.672;2023-03-11T08:33:42;99157.69;;;-3.83;78.95
61906;BME280;47863;55.766;37.672;2023-03-11T08:36:08;99173.59;;;-3.70;78.92
61906;BME280;47863;55.766;37.672;2023-03-11T08:38:34;99163.44;;;-3.61;79.06
61906;BME280;47863;55.766;37.672;2023-03-11T08:41:00;99085.81;;;-3.92;78.63
61906;BME280;47863;55.766;37.672;2023-03-11T08:43:26;99155.50;;;-3.29;78.43
61906;BME280;47863;55.766;37.672;2023-03-11T08:45:51;99138.00;;;-3.28;77.51
61906;BME280;47863;55.766;37.672;2023-03-11T08:48:17;99177.34;;;-3.14;77.79
61906;BME280;47863;55.766;37.672;2023-03-11T08:50:43;99106.31;;;-3.54;77.32
61906;BME280;47863;55.766;37.672;2023-03-11T08:53:08;99183.16;;;-3.09;77.63
61906;BME280;47863;55.766;37.672;2023-03-11T08:55:34;99162.84;;;-3.05;77.76
61906;BME280;47863;55.766;37.672;2023-03-11T08:58:00;99129.03;;;-3.24;77.53
61906;BME280;47863;55.766;37.672;2023-03-11T09:00:25;99167.16;;;-3.04;77.47
61906;BME280;47863;55.766;37.672;2023-03-11T09:02:51;99172.00;;;-3.12;78.24
61906;BME280;47863;55.766;37.672;2023-03-11T09:05:16;99152.06;;;-3.15;78.76
61906;BME280;47863;55.766;37.672;2023-03-11T09:07:42;99153.91;;;-3.31;79.32
61906;BME280;47863;55.766;37.672;2023-03-11T09:10:12;99167.13;;;-3.19;80.67
61906;BME280;47863;55.766;37.672;2023-03-11T09:12:38;99148.16;;;-3.38;80.22
61906;BME280;47863;55.766;37.672;2023-03-11T09:15:04;99131.00;;;-3.58;79.81
61906;BME280;47863;55.766;37.672;2023-03-11T09:17:30;99155.91;;;-3.51;80.81
61906;BME280;47863;55.766;37.672;2023-03-11T09:19:55;99122.66;;;-3.65;80.64
61906;BME280;47863;55.766;37.672;2023-03-11T09:22:21;99131.75;;;-3.56;81.23
61906;BME280;47863;55.766;37.672;2023-03-11T09:24:46;99123.09;;;-3.72;81.22
61906;BME280;47863;55.766;37.672;2023-03-11T09:27:12;99116.03;;;-3.86;81.80
61906;BME280;47863;55.766;37.672;2023-03-11T09:29:39;99132.56;;;-3.86;81.93
61906;BME280;47863;55.766;37.672;2023-03-11T09:32:05;99090.59;;;-4.14;82.60
61906;BME280;47863;55.766;37.672;2023-03-11T09:34:31;99132.66;;;-3.87;83.13
61906;BME280;47863;55.766;37.672;2023-03-11T09:36:56;99141.44;;;-3.88;83.14
61906;BME280;47863;55.766;37.672;2023-03-11T09:39:22;99113.50;;;-3.88;84.89
61906;BME280;47863;55.766;37.672;2023-03-11T09:42:02;99110.94;;;-3.89;84.10
61906;BME280;47863;55.766;37.672;2023-03-11T09:44:41;99114.84;;;-3.81;84.66
61906;BME280;47863;55.766;37.672;2023-03-11T09:47:14;99116.50;;;-3.80;85.01
61906;BME280;47863;55.766;37.672;2023-03-11T09:50:16;99116.44;;;-3.78;85.50
61906;BME280;47863;55.766;37.672;2023-03-11T09:53:02;99127.84;;;-3.79;85.12
61906;BME280;47863;55.766;37.672;2023-03-11T09:55:38;99106.03;;;-3.80;85.84
61906;BME280;47863;55.766;37.672;2023-03-11T09:58:20;99103.19;;;-3.75;86.00
61906;BME280;47863;55.766;37.672;2023-03-11T10:00:47;99113.47;;;-3.72;85.17
61906;BME280;47863;55.766;37.672;2023-03-11T10:03:31;99113.53;;;-3.73;85.34
61906;BME280;47863;55.766;37.672;2023-03-11T10:06:03;99068.09;;;-3.87;85.60
61906;BME280;47863;55.766;37.672;2023-03-11T10:08:40;99077.63;;;-3.86;85.50
61906;BME280;47863;55.766;37.672;2023-03-11T10:20:09;99068.91;;;-3.56;85.38
61906;BME280;47863;55.766;37.672;2023-03-11T10:27:53;99052.28;;;-3.55;84.95
61906;BME280;47863;55.766;37.672;2023-03-11T10:30:42;99027.47;;;-3.64;84.27
61906;BME280;47863;55.766;37.672;2023-03-11T10:36:00;99011.88;;;-3.65;84.38
61906;BME280;47863;55.766;37.672;2023-03-11T10:38:32;99023.28;;;-3.66;85.33
61906;BME280;47863;55.766;37.672;2023-03-11T10:41:03;99011.31;;;-3.70;85.37
61906;BME280;47863;55.766;37.672;2023-03-11T10:43:34;98990.28;;;-3.69;85.55
61906;BME280;47863;55.766;37.672;2023-03-11T10:46:12;98991.88;;;-3.66;84.92
61906;BME280;47863;55.766;37.672;2023-03-11T10:48:39;98985.88;;;-3.68;85.31
61906;BME280;47863;55.766;37.672;2023-03-11T10:51:17;98974.75;;;-3.72;85.52
61906;BME280;47863;55.766;37.672;2023-03-11T10:53:50;98985.59;;;-3.64;85.35
61906;BME280;47863;55.766;37.672;2023-03-11T10:56:37;98973.94;;;-3.58;86.04
61906;BME280;47863;55.766;37.672;2023-03-11T10:59:17;98976.53;;;-3.58;85.30
61906;BME280;47863;55.766;37.672;2023-03-11T11:01:59;99004.31;;;-3.55;85.67
61906;BME280;47863;55.766;37.672;2023-03-11T11:04:37;98963.44;;;-3.58;85.36
61906;BME280;47863;55.766;37.672;2023-03-11T11:07:39;98958.59;;;-3.50;85.86
61906;BME280;47863;55.766;37.672;2023-03-11T11:10:25;98965.03;;;-3.55;84.96
61906;BME280;47863;55.766;37.672;2023-03-11T11:12:59;98958.03;;;-3.55;85.24
61906;BME280;47863;55.766;37.672;2023-03-11T11:15:26;98950.28;;;-3.56;85.97
61906;BME280;47863;55.766;37.672;2023-03-11T11:17:53;98943.72;;;-3.64;85.63
61906;BME280;47863;55.766;37.672;2023-03-11T11:20:21;98946.25;;;-3.62;85.37
61906;BME280;47863;55.766;37.672;2023-03-11T11:22:56;98951.03;;;-3.54;86.06
61906;BME280;47863;55.766;37.672;2023-03-11T11:25:39;98928.88;;;-3.63;85.24
61906;BME280;47863;55.766;37.672;2023-03-11T11:28:19;98940.75;;;-3.43;85.57
61906;BME280;47863;55.766;37.672;2023-03-11T11:31:07;98919.69;;;-3.42;84.33
61906;BME280;47863;55.766;37.672;2023-03-11T11:33:54;98894.63;;;-3.46;84.42
61906;BME280;47863;55.766;37.672;2023-03-11T11:36:32;98917.09;;;-3.27;83.28
61906;BME280;47863;55.766;37.672;2023-03-11T11:39:00;98891.91;;;-3.30;84.47
61906;BME280;47863;55.766;37.672;2023-03-11T11:41:31;98907.72;;;-3.17;84.67
61906;BME280;47863;55.766;37.672;2023-03-11T11:44:03;98913.31;;;-3.09;84.63
61906;BME280;47863;55.766;37.672;2023-03-11T11:46:41;98905.78;;;-3.01;84.76
61906;BME280;47863;55.766;37.672;2023-03-11T11:49:17;98899.16;;;-3.06;84.30
61906;BME280;47863;55.766;37.672;2023-03-11T11:51:52;98850.69;;;-3.41;84.08
61906;BME280;47863;55.766;37.672;2023-03-11T11:54:27;98900.13;;;-3.07;85.42
61906;BME280;47863;55.766;37.672;2023-03-11T11:56:55;98874.44;;;-3.29;84.33
61906;BME280;47863;55.766;37.672;2023-03-11T11:59:23;98872.09;;;-3.34;85.00
61906;BME280;47863;55.766;37.672;2023-03-11T12:05:45;98888.81;;;-3.22;84.38
61906;BME280;47863;55.766;37.672;2023-03-11T12:18:20;98870.72;;;-3.12;85.11
61906;BME280;47863;55.766;37.672;2023-03-11T12:20:53;98874.75;;;-3.07;85.37
61906;BME280;47863;55.766;37.672;2023-03-11T12:31:00;98865.34;;;-2.96;84.74
61906;BME280;47863;55.766;37.672;2023-03-11T12:33:34;98847.28;;;-3.14;84.95
61906;BME280;47863;55.766;37.672;2023-03-11T12:36:02;98875.44;;;-2.90;85.30
61906;BME280;47863;55.766;37.672;2023-03-11T12:38:31;98848.75;;;-3.10;84.24
61906;BME280;47863;55.766;37.672;2023-03-11T12:46:02;98850.38;;;-2.94;85.06
61906;BME280;47863;55.766;37.672;2023-03-11T12:50:58;98851.81;;;-3.03;84.83
61906;BME280;47863;55.766;37.672;2023-03-11T12:53:46;98859.78;;;-3.05;84.15
61906;BME280;47863;55.766;37.672;2023-03-11T13:02:17;98860.72;;;-3.06;84.62
61906;BME280;47863;55.766;37.672;2023-03-11T13:05:11;98854.84;;;-3.09;84.66
61906;BME280;47863;55.766;37.672;2023-03-11T13:33:50;98798.63;;;-3.18;84.36
61906;BME280;47863;55.766;37.672;2023-03-11T13:39:21;98785.00;;;-3.23;84.54
61906;BME280;47863;55.766;37.672;2023-03-11T13:41:49;98757.81;;;-3.35;84.51
61906;BME280;47863;55.766;37.672;2023-03-11T13:46:46;98767.41;;;-3.21;84.25
61906;BME280;47863;55.766;37.672;2023-03-11T13:52:08;98766.34;;;-3.19;84.46
61906;BME280;47863;55.766;37.672;2023-03-11T13:54:38;98757.44;;;-3.16;84.78
61906;BME280;47863;55.766;37.672;2023-03-11T13:57:16;98747.84;;;-3.15;84.41
61906;BME280;47863;55.766;37.672;2023-03-11T13:59:51;98750.03;;;-3.09;84.90
61906;BME280;47863;55.766;37.672;2023-03-11T14:02:19;98735.97;;;-3.21;84.46
61906;BME280;47863;55.766;37.672;2023-03-11T14:04:49;98758.75;;;-3.09;84.73
61906;BME280;47863;55.766;37.672;2023-03-11T14:07:26;98750.13;;;-3.11;84.78
61906;BME280;47863;55.766;37.672;2023-03-11T14:10:15;98740.41;;;-3.09;84.52
61906;BME280;47863;55.766;37.672;2023-03-11T14:12:41;98745.44;;;-3.06;85.28
61906;BME280;47863;55.766;37.672;2023-03-11T14:15:08;98762.66;;;-3.02;85.27
61906;BME280;47863;55.766;37.672;2023-03-11T14:17:37;98731.84;;;-2.98;85.65
61906;BME280;47863;55.766;37.672;2023-03-11T14:22:36;98745.78;;;-2.97;85.51
61906;BME280;47863;55.766;37.672;2023-03-11T14:25:07;98741.47;;;-2.99;85.58
61906;BME280;47863;55.766;37.672;2023-03-11T14:27:36;98731.84;;;-2.98;85.83
61906;BME280;47863;55.766;37.672;2023-03-11T14:30:04;98708.78;;;-3.06;85.66